Bemidji Regional Airport
KBJI : now visible

Airfield :











YOU CAN JOIN US ON...

 
LOGIN :

Register | Disclaimer

   EN    FR    IT 

 









Legend :    VFR   Marginal VFR   IFR   Intensive IFR   Very Intensive IFR
Visi :
Ceiling :
>= 8 km
>= 3000ft
5 to 8 km
1000 to 3000 ft
1500m to 5 km
500 to 1000 ft
800 to 1500m
200 to 500 ft
< 800m
< 200 ft
Symbols :   Thunderstorms  Fog  Heavy snow  Heavy precipitations  Wind > 20 kt






- Airport Elevation : 1391 ft


KBJI - Bemidji Regional

CURRENT METAR :
  • 081856Z AUTO 28017G24KT 10SM BKN044 OVC050 08/M04 A2982 RMK AO2 T00771045

EXPIRED METARs :
  • 081855Z AUTO 29016G24KT 10SM BKN044 OVC050 08/M04 A2982 RMK AO2 T00751045
  • 081835Z AUTO 28016G20KT 10SM SCT046 BKN050 06/M04 A2983 RMK AO2 T00621044
  • 081815Z AUTO 28021G32KT 10SM BKN046 BKN055 08/M05 A2983 RMK AO2 T00761052
  • 081755Z AUTO 28021G28KT 10SM SCT044 SCT050 07/M05 A2983 RMK AO2 T00671055 10073 20005
  • 081735Z AUTO 28020G28KT 10SM SCT044 SCT050 07/M05 A2984 RMK AO2 T00691053
  • 081715Z AUTO 28020G24KT 10SM SCT046 07/M04 A2984 RMK AO2 T00701044
  • 081656Z AUTO 31019G26KT 10SM CLR 07/M05 A2984 RMK AO2 T00651052
  • 081635Z AUTO 29020G27KT 10SM CLR 06/M05 A2985 RMK AO2 T00601054
  • 081615Z AUTO 27015G21KT 10SM CLR 06/M03 A2984 RMK AO2 T00591034

TAF KBJI
Valid from the 08 at 18:00 until the 09 at 18:00 UTC


081736Z 0818/0918 28019G27KT P6SM VCSH BKN040
FM090300 29010KT P6SM BKN080
FM091000 30011KT P6SM BKN025
FM091500 31016G24KT P6SM OVC035



MET'MAP, your aeronautical weather chart ! - Copyright ORBIFLY December 2007 - Disclaimer

ORBIFLY MET'MAP TEAM :

Programming & Development : Alexandra Zaïnal
Concept & original design : Baudouin d'Aumeries
Assistance for programming : Marc-Olivier Méhu
Technical & hardware support : Manuel Goepfert

Contact : metmap@orbifly.com




SOURCES & CREDITS :

   NOAA       Earth
Advisory